sensor_id;sensor_type;location;lat;lon;timestamp;temperature;humidity
10597;DHT22;5346;48.766;8.674;2023-05-13T00:02:19;8.10;56.50
10597;DHT22;5346;48.766;8.674;2023-05-13T00:04:53;8.00;9.20
10597;DHT22;5346;48.766;8.674;2023-05-13T00:07:34;7.90;35.50
10597;DHT22;5346;48.766;8.674;2023-05-13T00:10:08;7.80;96.20
10597;DHT22;5346;48.766;8.674;2023-05-13T00:12:44;7.80;98.90
10597;DHT22;5346;48.766;8.674;2023-05-13T00:15:12;7.80;99.90
10597;DHT22;5346;48.766;8.674;2023-05-13T00:17:46;7.80;99.90
10597;DHT22;5346;48.766;8.674;2023-05-13T00:20:19;7.90;99.90
10597;DHT22;5346;48.766;8.674;2023-05-13T00:22:53;7.90;99.90
10597;DHT22;5346;48.766;8.674;2023-05-13T00:25:20;7.80;99.90
10597;DHT22;5346;48.766;8.674;2023-05-13T00:27:54;7.80;99.90
10597;DHT22;5346;48.766;8.674;2023-05-13T00:30:28;7.90;99.90
10597;DHT22;5346;48.766;8.674;2023-05-13T00:33:02;7.90;99.90
10597;DHT22;5346;48.766;8.674;2023-05-13T00:35:36;7.90;99.90
10597;DHT22;5346;48.766;8.674;2023-05-13T00:38:03;7.90;99.90
10597;DHT22;5346;48.766;8.674;2023-05-13T00:40:38;7.90;99.90
10597;DHT22;5346;48.766;8.674;2023-05-13T00:43:05;7.90;99.90
10597;DHT22;5346;48.766;8.674;2023-05-13T00:45:39;7.90;99.90
10597;DHT22;5346;48.766;8.674;2023-05-13T00:48:13;7.80;99.90
10597;DHT22;5346;48.766;8.674;2023-05-13T00:50:47;7.80;99.90
10597;DHT22;5346;48.766;8.674;2023-05-13T00:53:21;7.60;99.90
10597;DHT22;5346;48.766;8.674;2023-05-13T00:55:49;7.50;99.90
10597;DHT22;5346;48.766;8.674;2023-05-13T00:58:22;7.40;99.90
10597;DHT22;5346;48.766;8.674;2023-05-13T01:01:24;7.30;99.90
10597;DHT22;5346;48.766;8.674;2023-05-13T01:07:17;7.00;99.90
10597;DHT22;5346;48.766;8.674;2023-05-13T01:10:14;7.00;99.90
10597;DHT22;5346;48.766;8.674;2023-05-13T01:12:53;7.10;99.90
10597;DHT22;5346;48.766;8.674;2023-05-13T01:15:30;7.10;99.90
10597;DHT22;5346;48.766;8.674;2023-05-13T01:18:05;7.20;99.90
10597;DHT22;5346;48.766;8.674;2023-05-13T01:20:45;7.20;99.90
10597;DHT22;5346;48.766;8.674;2023-05-13T01:23:12;7.30;99.90
10597;DHT22;5346;48.766;8.674;2023-05-13T01:25:46;7.30;99.90
10597;DHT22;5346;48.766;8.674;2023-05-13T01:28:14;7.40;99.90
10597;DHT22;5346;48.766;8.674;2023-05-13T01:30:48;7.40;99.90
10597;DHT22;5346;48.766;8.674;2023-05-13T01:33:17;7.40;99.90
10597;DHT22;5346;48.766;8.674;2023-05-13T01:35:51;7.50;1.00
10597;DHT22;5346;48.766;8.674;2023-05-13T01:38:19;7.50;1.00
10597;DHT22;5346;48.766;8.674;2023-05-13T01:40:54;7.50;1.00
10597;DHT22;5346;48.766;8.674;2023-05-13T01:43:28;7.50;1.00
10597;DHT22;5346;48.766;8.674;2023-05-13T01:45:55;7.40;1.00
10597;DHT22;5346;48.766;8.674;2023-05-13T01:48:32;7.40;1.00
10597;DHT22;5346;48.766;8.674;2023-05-13T01:50:59;7.40;1.00
10597;DHT22;5346;48.766;8.674;2023-05-13T01:53:33;7.40;1.00
10597;DHT22;5346;48.766;8.674;2023-05-13T01:56:10;7.40;1.00
10597;DHT22;5346;48.766;8.674;2023-05-13T01:58:37;7.40;1.00
10597;DHT22;5346;48.766;8.674;2023-05-13T02:01:11;7.30;1.00
10597;DHT22;5346;48.766;8.674;2023-05-13T02:03:58;7.40;1.00
10597;DHT22;5346;48.766;8.674;2023-05-13T02:06:31;7.30;1.00
10597;DHT22;5346;48.766;8.674;2023-05-13T02:08:59;7.30;1.00
10597;DHT22;5346;48.766;8.674;2023-05-13T02:11:32;7.30;1.00
10597;DHT22;5346;48.766;8.674;2023-05-13T02:14:01;7.30;1.00
10597;DHT22;5346;48.766;8.674;2023-05-13T02:16:29;7.30;1.00
10597;DHT22;5346;48.766;8.674;2023-05-13T02:19:03;7.40;1.00
10597;DHT22;5346;48.766;8.674;2023-05-13T02:21:31;7.40;1.00
10597;DHT22;5346;48.766;8.674;2023-05-13T02:24:04;7.40;1.00
10597;DHT22;5346;48.766;8.674;2023-05-13T02:26:38;7.40;1.00
10597;DHT22;5346;48.766;8.674;2023-05-13T02:29:13;7.40;1.00
10597;DHT22;5346;48.766;8.674;2023-05-13T02:31:40;7.40;1.00
10597;DHT22;5346;48.766;8.674;2023-05-13T02:34:15;7.40;1.00
10597;DHT22;5346;48.766;8.674;2023-05-13T02:36:42;7.40;1.00
10597;DHT22;5346;48.766;8.674;2023-05-13T02:39:16;7.40;1.00
10597;DHT22;5346;48.766;8.674;2023-05-13T02:41:43;7.30;1.00
10597;DHT22;5346;48.766;8.674;2023-05-13T02:44:17;7.20;1.00
10597;DHT22;5346;48.766;8.674;2023-05-13T02:46:44;7.10;1.00
10597;DHT22;5346;48.766;8.674;2023-05-13T02:49:18;6.90;1.00
10597;DHT22;5346;48.766;8.674;2023-05-13T02:51:51;6.70;99.90
10597;DHT22;5346;48.766;8.674;2023-05-13T02:54:25;6.60;99.90
10597;DHT22;5346;48.766;8.674;2023-05-13T02:56:52;6.50;99.90
10597;DHT22;5346;48.766;8.674;2023-05-13T02:59:26;6.40;99.90
10597;DHT22;5346;48.766;8.674;2023-05-13T03:01:53;6.30;99.90
10597;DHT22;5346;48.766;8.674;2023-05-13T03:04:29;6.30;99.90
10597;DHT22;5346;48.766;8.674;2023-05-13T03:07:10;6.10;99.90
10597;DHT22;5346;48.766;8.674;2023-05-13T03:09:44;6.00;99.90
10597;DHT22;5346;48.766;8.674;2023-05-13T03:12:11;5.90;99.90
10597;DHT22;5346;48.766;8.674;2023-05-13T03:14:45;5.80;99.90
10597;DHT22;5346;48.766;8.674;2023-05-13T03:17:12;5.80;99.90
10597;DHT22;5346;48.766;8.674;2023-05-13T03:19:46;5.80;99.90
10597;DHT22;5346;48.766;8.674;2023-05-13T03:22:13;5.80;99.90
10597;DHT22;5346;48.766;8.674;2023-05-13T03:24:47;5.80;1.40
10597;DHT22;5346;48.766;8.674;2023-05-13T03:27:14;5.90;1.00
10597;DHT22;5346;48.766;8.674;2023-05-13T03:29:48;5.80;1.00
10597;DHT22;5346;48.766;8.674;2023-05-13T03:32:15;5.80;1.00
10597;DHT22;5346;48.766;8.674;2023-05-13T03:34:50;5.70;1.00
10597;DHT22;5346;48.766;8.674;2023-05-13T03:37:24;5.50;99.90
10597;DHT22;5346;48.766;8.674;2023-05-13T03:39:59;5.50;99.90
10597;DHT22;5346;48.766;8.674;2023-05-13T03:42:26;5.40;99.90
10597;DHT22;5346;48.766;8.674;2023-05-13T03:44:53;5.40;99.90
10597;DHT22;5346;48.766;8.674;2023-05-13T03:47:29;5.30;1.00
10597;DHT22;5346;48.766;8.674;2023-05-13T03:50:04;5.50;1.00
10597;DHT22;5346;48.766;8.674;2023-05-13T03:52:38;5.50;1.00
10597;DHT22;5346;48.766;8.674;2023-05-13T03:55:13;5.50;1.00
10597;DHT22;5346;48.766;8.674;2023-05-13T03:57:48;5.50;1.00
10597;DHT22;5346;48.766;8.674;2023-05-13T04:00:15;5.50;1.00
10597;DHT22;5346;48.766;8.674;2023-05-13T04:02:56;5.50;1.00
10597;DHT22;5346;48.766;8.674;2023-05-13T04:05:29;5.50;1.00
10597;DHT22;5346;48.766;8.674;2023-05-13T04:08:03;5.50;1.00
10597;DHT22;5346;48.766;8.674;2023-05-13T04:10:37;5.60;1.00
10597;DHT22;5346;48.766;8.674;2023-05-13T04:13:05;5.70;1.00
10597;DHT22;5346;48.766;8.674;2023-05-13T04:15:32;5.70;1.00
10597;DHT22;5346;48.766;8.674;2023-05-13T04:18:09;5.80;1.00
10597;DHT22;5346;48.766;8.674;2023-05-13T04:20:42;5.90;1.00
10597;DHT22;5346;48.766;8.674;2023-05-13T04:23:09;5.90;1.00
10597;DHT22;5346;48.766;8.674;2023-05-13T04:25:51;6.00;1.00
10597;DHT22;5346;48.766;8.674;2023-05-13T04:28:19;6.00;1.00
10597;DHT22;5346;48.766;8.674;2023-05-13T04:30:52;6.10;1.00
10597;DHT22;5346;48.766;8.674;2023-05-13T04:33:20;6.10;1.00
10597;DHT22;5346;48.766;8.674;2023-05-13T04:35:53;6.10;1.00
10597;DHT22;5346;48.766;8.674;2023-05-13T04:38:20;6.10;1.00
10597;DHT22;5346;48.766;8.674;2023-05-13T04:40:54;6.10;1.00
10597;DHT22;5346;48.766;8.674;2023-05-13T04:43:28;6.10;1.00
10597;DHT22;5346;48.766;8.674;2023-05-13T04:46:02;6.10;1.00
10597;DHT22;5346;48.766;8.674;2023-05-13T04:48:36;6.10;1.00
10597;DHT22;5346;48.766;8.674;2023-05-13T04:51:04;6.10;1.00
10597;DHT22;5346;48.766;8.674;2023-05-13T04:53:38;6.10;1.00
10597;DHT22;5346;48.766;8.674;2023-05-13T04:56:05;6.20;1.00
10597;DHT22;5346;48.766;8.674;2023-05-13T04:58:39;6.30;1.00
10597;DHT22;5346;48.766;8.674;2023-05-13T05:01:13;6.30;1.00
10597;DHT22;5346;48.766;8.674;2023-05-13T05:03:53;6.40;1.00
10597;DHT22;5346;48.766;8.674;2023-05-13T05:06:20;6.50;1.00
10597;DHT22;5346;48.766;8.674;2023-05-13T05:08:54;6.50;1.00
10597;DHT22;5346;48.766;8.674;2023-05-13T05:11:21;6.60;1.00
10597;DHT22;5346;48.766;8.674;2023-05-13T05:13:55;6.70;1.00
10597;DHT22;5346;48.766;8.674;2023-05-13T05:16:22;6.90;1.00
10597;DHT22;5346;48.766;8.674;2023-05-13T05:18:56;6.90;1.00
10597;DHT22;5346;48.766;8.674;2023-05-13T05:21:23;6.90;1.00
10597;DHT22;5346;48.766;8.674;2023-05-13T05:23:57;7.10;1.00
10597;DHT22;5346;48.766;8.674;2023-05-13T05:26:25;7.10;1.00
10597;DHT22;5346;48.766;8.674;2023-05-13T05:28:58;7.20;1.00
10597;DHT22;5346;48.766;8.674;2023-05-13T05:31:25;7.30;1.00
10597;DHT22;5346;48.766;8.674;2023-05-13T05:33:59;7.30;1.00
10597;DHT22;5346;48.766;8.674;2023-05-13T05:36:33;7.40;1.00
10597;DHT22;5346;48.766;8.674;2023-05-13T05:39:07;7.50;1.00
10597;DHT22;5346;48.766;8.674;2023-05-13T05:41:41;7.60;1.00
10597;DHT22;5346;48.766;8.674;2023-05-13T05:44:15;7.60;99.90
10597;DHT22;5346;48.766;8.674;2023-05-13T05:46:42;7.80;93.00
10597;DHT22;5346;48.766;8.674;2023-05-13T05:49:16;7.90;1.00
10597;DHT22;5346;48.766;8.674;2023-05-13T05:51:50;8.10;1.00
10597;DHT22;5346;48.766;8.674;2023-05-13T05:54:17;8.20;99.90
10597;DHT22;5346;48.766;8.674;2023-05-13T05:56:51;8.10;1.00
10597;DHT22;5346;48.766;8.674;2023-05-13T05:59:18;8.10;99.90
10597;DHT22;5346;48.766;8.674;2023-05-13T06:01:52;8.10;99.90
10597;DHT22;5346;48.766;8.674;2023-05-13T06:04:33;8.20;99.90
10597;DHT22;5346;48.766;8.674;2023-05-13T06:07:01;8.30;99.90
10597;DHT22;5346;48.766;8.674;2023-05-13T06:09:35;8.40;65.00
10597;DHT22;5346;48.766;8.674;2023-05-13T06:12:09;8.50;99.90
10597;DHT22;5346;48.766;8.674;2023-05-13T06:14:43;8.60;1.00
10597;DHT22;5346;48.766;8.674;2023-05-13T06:17:12;8.60;1.00
10597;DHT22;5346;48.766;8.674;2023-05-13T06:19:47;8.60;1.00
10597;DHT22;5346;48.766;8.674;2023-05-13T06:22:14;8.60;1.00
10597;DHT22;5346;48.766;8.674;2023-05-13T06:24:48;8.60;1.00
10597;DHT22;5346;48.766;8.674;2023-05-13T06:27:22;8.60;1.00
10597;DHT22;5346;48.766;8.674;2023-05-13T06:29:55;8.80;1.00
10597;DHT22;5346;48.766;8.674;2023-05-13T06:32:29;8.80;99.90
10597;DHT22;5346;48.766;8.674;2023-05-13T06:35:08;8.90;1.00
10597;DHT22;5346;48.766;8.674;2023-05-13T06:37:43;9.10;1.00
10597;DHT22;5346;48.766;8.674;2023-05-13T06:40:16;9.20;99.90
10597;DHT22;5346;48.766;8.674;2023-05-13T06:42:45;9.30;99.90
10597;DHT22;5346;48.766;8.674;2023-05-13T06:45:18;9.40;99.90
10597;DHT22;5346;48.766;8.674;2023-05-13T06:47:51;9.50;1.00
10597;DHT22;5346;48.766;8.674;2023-05-13T06:50:25;9.60;1.00
10597;DHT22;5346;48.766;8.674;2023-05-13T06:52:53;9.70;1.00
10597;DHT22;5346;48.766;8.674;2023-05-13T06:55:27;9.80;99.90
10597;DHT22;5346;48.766;8.674;2023-05-13T06:57:54;9.90;99.90
10597;DHT22;5346;48.766;8.674;2023-05-13T07:00:28;9.90;99.90
10597;DHT22;5346;48.766;8.674;2023-05-13T07:03:08;10.00;51.80
10597;DHT22;5346;48.766;8.674;2023-05-13T07:05:51;10.00;1.00
10597;DHT22;5346;48.766;8.674;2023-05-13T07:08:22;10.10;1.00
10597;DHT22;5346;48.766;8.674;2023-05-13T07:10:55;10.30;1.00
10597;DHT22;5346;48.766;8.674;2023-05-13T07:13:22;10.40;1.00
10597;DHT22;5346;48.766;8.674;2023-05-13T07:15:58;10.50;99.90
10597;DHT22;5346;48.766;8.674;2023-05-13T07:18:25;10.60;99.90
10597;DHT22;5346;48.766;8.674;2023-05-13T07:20:59;10.80;99.90
10597;DHT22;5346;48.766;8.674;2023-05-13T07:23:28;10.70;99.90
10597;DHT22;5346;48.766;8.674;2023-05-13T07:26:01;10.60;1.00
10597;DHT22;5346;48.766;8.674;2023-05-13T07:28:29;10.60;99.90
10597;DHT22;5346;48.766;8.674;2023-05-13T07:31:04;10.80;99.90
10597;DHT22;5346;48.766;8.674;2023-05-13T07:33:31;10.90;1.00
10597;DHT22;5346;48.766;8.674;2023-05-13T07:36:05;11.20;1.00
10597;DHT22;5346;48.766;8.674;2023-05-13T07:38:35;11.50;4.70
10597;DHT22;5346;48.766;8.674;2023-05-13T07:41:09;11.60;1.00
10597;DHT22;5346;48.766;8.674;2023-05-13T07:43:43;11.70;1.00
10597;DHT22;5346;48.766;8.674;2023-05-13T07:46:18;11.80;1.00
10597;DHT22;5346;48.766;8.674;2023-05-13T07:48:47;11.90;1.00
10597;DHT22;5346;48.766;8.674;2023-05-13T07:51:21;12.00;99.90
10597;DHT22;5346;48.766;8.674;2023-05-13T07:53:48;11.80;99.90
10597;DHT22;5346;48.766;8.674;2023-05-13T07:56:25;11.70;1.00
10597;DHT22;5346;48.766;8.674;2023-05-13T07:58:52;11.60;1.00
10597;DHT22;5346;48.766;8.674;2023-05-13T08:01:29;11.70;1.00
10597;DHT22;5346;48.766;8.674;2023-05-13T08:04:10;11.70;99.90
10597;DHT22;5346;48.766;8.674;2023-05-13T08:06:44;11.50;1.00
10597;DHT22;5346;48.766;8.674;2023-05-13T08:09:11;11.40;1.00
10597;DHT22;5346;48.766;8.674;2023-05-13T08:11:47;11.30;99.90
10597;DHT22;5346;48.766;8.674;2023-05-13T08:14:14;11.20;99.90
10597;DHT22;5346;48.766;8.674;2023-05-13T08:16:41;11.10;99.90
10597;DHT22;5346;48.766;8.674;2023-05-13T08:19:16;11.10;1.00
10597;DHT22;5346;48.766;8.674;2023-05-13T08:21:43;11.30;1.00
10597;DHT22;5346;48.766;8.674;2023-05-13T08:24:16;11.50;1.00
10597;DHT22;5346;48.766;8.674;2023-05-13T08:26:43;11.50;99.90
10597;DHT22;5346;48.766;8.674;2023-05-13T08:29:17;11.50;99.90
10597;DHT22;5346;48.766;8.674;2023-05-13T08:31:50;11.60;99.90
10597;DHT22;5346;48.766;8.674;2023-05-13T08:34:25;11.60;1.00
10597;DHT22;5346;48.766;8.674;2023-05-13T08:36:52;11.60;99.90
10597;DHT22;5346;48.766;8.674;2023-05-13T08:39:27;11.60;99.90
10597;DHT22;5346;48.766;8.674;2023-05-13T08:41:55;11.50;1.00
10597;DHT22;5346;48.766;8.674;2023-05-13T08:44:34;11.50;99.90
10597;DHT22;5346;48.766;8.674;2023-05-13T08:47:31;11.30;99.90
10597;DHT22;5346;48.766;8.674;2023-05-13T08:50:18;11.30;1.00
10597;DHT22;5346;48.766;8.674;2023-05-13T08:52:52;11.50;99.90
10597;DHT22;5346;48.766;8.674;2023-05-13T08:55:26;11.70;99.90
10597;DHT22;5346;48.766;8.674;2023-05-13T08:57:54;11.90;99.90
10597;DHT22;5346;48.766;8.674;2023-05-13T09:00:22;11.90;99.90
10597;DHT22;5346;48.766;8.674;2023-05-13T09:02:56;11.90;99.90
10597;DHT22;5346;48.766;8.674;2023-05-13T09:05:29;11.80;99.90
10597;DHT22;5346;48.766;8.674;2023-05-13T09:08:08;11.80;99.90
10597;DHT22;5346;48.766;8.674;2023-05-13T09:10:36;12.00;99.90
10597;DHT22;5346;48.766;8.674;2023-05-13T09:13:11;12.20;99.90
10597;DHT22;5346;48.766;8.674;2023-05-13T09:15:45;12.20;99.90
10597;DHT22;5346;48.766;8.674;2023-05-13T09:18:19;12.20;99.90
10597;DHT22;5346;48.766;8.674;2023-05-13T09:21:22;12.10;99.90
10597;DHT22;5346;48.766;8.674;2023-05-13T09:24:07;11.90;99.90
10597;DHT22;5346;48.766;8.674;2023-05-13T09:26:40;11.80;99.90
10597;DHT22;5346;48.766;8.674;2023-05-13T09:32:00;12.10;99.90
10597;DHT22;5346;48.766;8.674;2023-05-13T09:34:39;12.20;99.90
10597;DHT22;5346;48.766;8.674;2023-05-13T09:37:22;12.10;99.90
10597;DHT22;5346;48.766;8.674;2023-05-13T09:39:56;12.10;99.90
10597;DHT22;5346;48.766;8.674;2023-05-13T09:42:32;12.20;99.90
10597;DHT22;5346;48.766;8.674;2023-05-13T09:45:04;12.10;99.90
10597;DHT22;5346;48.766;8.674;2023-05-13T09:47:40;12.10;99.90
10597;DHT22;5346;48.766;8.674;2023-05-13T09:50:09;11.90;99.90
10597;DHT22;5346;48.766;8.674;2023-05-13T09:52:44;12.00;99.90
10597;DHT22;5346;48.766;8.674;2023-05-13T09:55:21;11.90;99.90
10597;DHT22;5346;48.766;8.674;2023-05-13T09:57:52;11.90;99.90
10597;DHT22;5346;48.766;8.674;2023-05-13T10:00:26;11.70;99.90
10597;DHT22;5346;48.766;8.674;2023-05-13T10:03:11;11.60;99.90
10597;DHT22;5346;48.766;8.674;2023-05-13T10:05:47;11.40;99.90
10597;DHT22;5346;48.766;8.674;2023-05-13T10:08:19;11.40;99.90
10597;DHT22;5346;48.766;8.674;2023-05-13T10:10:55;11.50;99.90
10597;DHT22;5346;48.766;8.674;2023-05-13T10:13:23;11.70;99.90
10597;DHT22;5346;48.766;8.674;2023-05-13T10:15:58;11.70;99.90
10597;DHT22;5346;48.766;8.674;2023-05-13T10:18:26;11.70;99.90
10597;DHT22;5346;48.766;8.674;2023-05-13T10:21:01;11.80;99.90
10597;DHT22;5346;48.766;8.674;2023-05-13T10:23:31;11.90;99.90
10597;DHT22;5346;48.766;8.674;2023-05-13T10:26:06;12.00;99.90
10597;DHT22;5346;48.766;8.674;2023-05-13T10:28:44;12.00;99.90
10597;DHT22;5346;48.766;8.674;2023-05-13T10:31:15;11.90;99.90
10597;DHT22;5346;48.766;8.674;2023-05-13T10:33:51;12.00;99.90
10597;DHT22;5346;48.766;8.674;2023-05-13T10:36:46;12.10;99.90
10597;DHT22;5346;48.766;8.674;2023-05-13T10:42:39;12.20;99.90
10597;DHT22;5346;48.766;8.674;2023-05-13T10:45:15;12.40;99.90
10597;DHT22;5346;48.766;8.674;2023-05-13T10:47:43;12.40;99.90
10597;DHT22;5346;48.766;8.674;2023-05-13T10:50:23;12.60;99.90
10597;DHT22;5346;48.766;8.674;2023-05-13T10:52:55;12.50;99.90
10597;DHT22;5346;48.766;8.674;2023-05-13T10:55:39;12.70;99.90
10597;DHT22;5346;48.766;8.674;2023-05-13T10:58:17;13.00;99.90
10597;DHT22;5346;48.766;8.674;2023-05-13T11:01:18;13.20;99.90
10597;DHT22;5346;48.766;8.674;2023-05-13T11:04:00;13.60;91.70
10597;DHT22;5346;48.766;8.674;2023-05-13T11:06:46;13.50;1.00
10597;DHT22;5346;48.766;8.674;2023-05-13T11:09:29;13.50;3.60
10597;DHT22;5346;48.766;8.674;2023-05-13T11:11:58;13.60;1.00
10597;DHT22;5346;48.766;8.674;2023-05-13T11:14:34;13.80;3.80
10597;DHT22;5346;48.766;8.674;2023-05-13T11:17:10;13.80;2.50
10597;DHT22;5346;48.766;8.674;2023-05-13T11:19:46;14.00;1.00
10597;DHT22;5346;48.766;8.674;2023-05-13T11:22:19;14.40;1.00
10597;DHT22;5346;48.766;8.674;2023-05-13T11:25:08;14.40;1.00
10597;DHT22;5346;48.766;8.674;2023-05-13T11:27:41;14.70;1.00
10597;DHT22;5346;48.766;8.674;2023-05-13T11:30:24;14.30;1.00
10597;DHT22;5346;48.766;8.674;2023-05-13T11:32:57;14.00;1.00
10597;DHT22;5346;48.766;8.674;2023-05-13T11:35:32;13.90;1.00
10597;DHT22;5346;48.766;8.674;2023-05-13T11:38:01;13.90;36.70
10597;DHT22;5346;48.766;8.674;2023-05-13T11:40:34;14.10;1.00
10597;DHT22;5346;48.766;8.674;2023-05-13T11:43:10;14.10;1.00
10597;DHT22;5346;48.766;8.674;2023-05-13T11:45:51;13.90;1.00
10597;DHT22;5346;48.766;8.674;2023-05-13T11:48:25;13.90;1.00
10597;DHT22;5346;48.766;8.674;2023-05-13T11:50:59;13.80;1.00
10597;DHT22;5346;48.766;8.674;2023-05-13T11:53:27;13.60;1.00
10597;DHT22;5346;48.766;8.674;2023-05-13T11:56:11;13.30;1.00
10597;DHT22;5346;48.766;8.674;2023-05-13T11:58:45;13.10;1.00
10597;DHT22;5346;48.766;8.674;2023-05-13T12:01:20;13.20;46.20
10597;DHT22;5346;48.766;8.674;2023-05-13T12:04:00;13.40;67.40
10597;DHT22;5346;48.766;8.674;2023-05-13T12:06:41;14.00;1.00
10597;DHT22;5346;48.766;8.674;2023-05-13T12:09:16;14.80;1.00
10597;DHT22;5346;48.766;8.674;2023-05-13T12:11:51;15.80;1.00
10597;DHT22;5346;48.766;8.674;2023-05-13T12:14:25;16.40;1.00
10597;DHT22;5346;48.766;8.674;2023-05-13T12:16:54;16.10;1.00
10597;DHT22;5346;48.766;8.674;2023-05-13T12:19:23;16.00;1.00
10597;DHT22;5346;48.766;8.674;2023-05-13T12:21:58;15.80;1.00
10597;DHT22;5346;48.766;8.674;2023-05-13T12:24:25;15.70;1.00
10597;DHT22;5346;48.766;8.674;2023-05-13T12:27:05;15.30;1.00
10597;DHT22;5346;48.766;8.674;2023-05-13T12:29:40;15.00;1.00
10597;DHT22;5346;48.766;8.674;2023-05-13T12:32:15;14.90;1.00
10597;DHT22;5346;48.766;8.674;2023-05-13T12:34:47;14.90;1.00
10597;DHT22;5346;48.766;8.674;2023-05-13T12:37:23;15.20;1.00
10597;DHT22;5346;48.766;8.674;2023-05-13T12:40:08;15.60;1.00
10597;DHT22;5346;48.766;8.674;2023-05-13T12:42:45;15.60;1.00
10597;DHT22;5346;48.766;8.674;2023-05-13T12:45:19;15.70;1.00
10597;DHT22;5346;48.766;8.674;2023-05-13T12:47:51;15.70;1.00
10597;DHT22;5346;48.766;8.674;2023-05-13T12:50:26;15.80;1.00
10597;DHT22;5346;48.766;8.674;2023-05-13T12:53:00;15.70;1.00
10597;DHT22;5346;48.766;8.674;2023-05-13T12:55:34;16.00;1.00
10597;DHT22;5346;48.766;8.674;2023-05-13T12:58:11;16.00;1.00
10597;DHT22;5346;48.766;8.674;2023-05-13T13:00:39;16.00;1.00
10597;DHT22;5346;48.766;8.674;2023-05-13T13:03:26;15.90;1.00
10597;DHT22;5346;48.766;8.674;2023-05-13T13:06:07;15.90;1.00
10597;DHT22;5346;48.766;8.674;2023-05-13T13:08:42;16.20;1.00
10597;DHT22;5346;48.766;8.674;2023-05-13T13:11:22;16.60;1.00
10597;DHT22;5346;48.766;8.674;2023-05-13T13:13:55;16.70;1.00
10597;DHT22;5346;48.766;8.674;2023-05-13T13:16:22;16.90;1.00
10597;DHT22;5346;48.766;8.674;2023-05-13T13:18:56;17.20;1.00
10597;DHT22;5346;48.766;8.674;2023-05-13T13:21:27;16.60;1.00
10597;DHT22;5346;48.766;8.674;2023-05-13T13:24:01;16.10;1.00
10597;DHT22;5346;48.766;8.674;2023-05-13T13:26:28;15.70;1.00
10597;DHT22;5346;48.766;8.674;2023-05-13T13:29:04;15.50;1.00
10597;DHT22;5346;48.766;8.674;2023-05-13T13:31:38;15.80;1.00
10597;DHT22;5346;48.766;8.674;2023-05-13T13:34:13;16.30;1.00
10597;DHT22;5346;48.766;8.674;2023-05-13T13:36:46;16.40;1.00
10597;DHT22;5346;48.766;8.674;2023-05-13T13:39:20;16.60;1.00
10597;DHT22;5346;48.766;8.674;2023-05-13T13:41:47;16.50;1.00
10597;DHT22;5346;48.766;8.674;2023-05-13T13:44:22;16.10;1.00
10597;DHT22;5346;48.766;8.674;2023-05-13T13:46:49;15.80;1.00
10597;DHT22;5346;48.766;8.674;2023-05-13T13:49:22;15.50;1.00
10597;DHT22;5346;48.766;8.674;2023-05-13T13:52:05;15.20;1.00
10597;DHT22;5346;48.766;8.674;2023-05-13T13:54:32;14.50;1.00
10597;DHT22;5346;48.766;8.674;2023-05-13T13:57:06;13.90;1.00
10597;DHT22;5346;48.766;8.674;2023-05-13T13:59:33;13.60;1.00
10597;DHT22;5346;48.766;8.674;2023-05-13T14:02:15;13.40;1.00
10597;DHT22;5346;48.766;8.674;2023-05-13T14:04:56;13.30;1.00
10597;DHT22;5346;48.766;8.674;2023-05-13T14:07:30;13.40;1.00
10597;DHT22;5346;48.766;8.674;2023-05-13T14:09:58;13.60;1.00
10597;DHT22;5346;48.766;8.674;2023-05-13T14:12:31;13.90;1.00
10597;DHT22;5346;48.766;8.674;2023-05-13T14:14:58;14.10;1.00
10597;DHT22;5346;48.766;8.674;2023-05-13T14:17:33;14.20;1.00
10597;DHT22;5346;48.766;8.674;2023-05-13T14:20:00;13.80;1.00
10597;DHT22;5346;48.766;8.674;2023-05-13T14:22:35;13.50;1.00
10597;DHT22;5346;48.766;8.674;2023-05-13T14:25:09;13.10;1.00
10597;DHT22;5346;48.766;8.674;2023-05-13T14:27:43;13.00;1.00
10597;DHT22;5346;48.766;8.674;2023-05-13T14:30:10;13.00;75.00
10597;DHT22;5346;48.766;8.674;2023-05-13T14:32:47;13.10;1.80
10597;DHT22;5346;48.766;8.674;2023-05-13T14:35:14;13.40;1.00
10597;DHT22;5346;48.766;8.674;2023-05-13T14:37:52;13.80;64.10
10597;DHT22;5346;48.766;8.674;2023-05-13T14:40:19;14.50;1.00
10597;DHT22;5346;48.766;8.674;2023-05-13T14:42:54;15.20;1.00
10597;DHT22;5346;48.766;8.674;2023-05-13T14:45:23;15.60;1.00
10597;DHT22;5346;48.766;8.674;2023-05-13T14:47:57;15.80;1.00
10597;DHT22;5346;48.766;8.674;2023-05-13T14:50:24;15.50;1.00
10597;DHT22;5346;48.766;8.674;2023-05-13T14:52:58;15.20;1.00
10597;DHT22;5346;48.766;8.674;2023-05-13T14:55:32;14.80;1.00
10597;DHT22;5346;48.766;8.674;2023-05-13T14:58:06;14.30;1.00
10597;DHT22;5346;48.766;8.674;2023-05-13T15:00:41;14.10;1.00
10597;DHT22;5346;48.766;8.674;2023-05-13T15:03:22;13.90;1.00
10597;DHT22;5346;48.766;8.674;2023-05-13T15:05:58;13.90;1.00
10597;DHT22;5346;48.766;8.674;2023-05-13T15:08:25;14.10;1.00
10597;DHT22;5346;48.766;8.674;2023-05-13T15:10:59;14.30;1.00
10597;DHT22;5346;48.766;8.674;2023-05-13T15:13:28;14.40;1.00
10597;DHT22;5346;48.766;8.674;2023-05-13T15:16:09;14.70;1.00
10597;DHT22;5346;48.766;8.674;2023-05-13T15:18:45;14.70;1.00
10597;DHT22;5346;48.766;8.674;2023-05-13T15:21:18;14.30;1.00
10597;DHT22;5346;48.766;8.674;2023-05-13T15:23:45;14.00;1.00
10597;DHT22;5346;48.766;8.674;2023-05-13T15:26:20;13.70;1.00
10597;DHT22;5346;48.766;8.674;2023-05-13T15:28:48;13.40;1.00
10597;DHT22;5346;48.766;8.674;2023-05-13T15:31:16;13.40;38.40
10597;DHT22;5346;48.766;8.674;2023-05-13T15:33:49;13.40;1.00
10597;DHT22;5346;48.766;8.674;2023-05-13T15:36:24;13.40;1.00
10597;DHT22;5346;48.766;8.674;2023-05-13T15:38:52;13.80;1.00
10597;DHT22;5346;48.766;8.674;2023-05-13T15:41:31;14.30;1.00
10597;DHT22;5346;48.766;8.674;2023-05-13T15:43:58;14.90;1.00
10597;DHT22;5346;48.766;8.674;2023-05-13T15:46:31;15.40;1.00
10597;DHT22;5346;48.766;8.674;2023-05-13T15:49:08;15.60;1.00
10597;DHT22;5346;48.766;8.674;2023-05-13T15:51:41;15.40;1.00
10597;DHT22;5346;48.766;8.674;2023-05-13T15:54:14;15.50;1.00
10597;DHT22;5346;48.766;8.674;2023-05-13T15:56:41;15.30;1.00
10597;DHT22;5346;48.766;8.674;2023-05-13T15:59:15;15.00;1.00
10597;DHT22;5346;48.766;8.674;2023-05-13T16:01:50;14.40;1.00
10597;DHT22;5346;48.766;8.674;2023-05-13T16:04:25;13.70;1.00
10597;DHT22;5346;48.766;8.674;2023-05-13T16:07:06;13.40;1.00
10597;DHT22;5346;48.766;8.674;2023-05-13T16:09:42;13.30;99.90
10597;DHT22;5346;48.766;8.674;2023-05-13T16:12:19;13.30;99.90
10597;DHT22;5346;48.766;8.674;2023-05-13T16:14:52;13.50;98.40
10597;DHT22;5346;48.766;8.674;2023-05-13T16:17:28;13.50;86.50
10597;DHT22;5346;48.766;8.674;2023-05-13T16:20:02;13.60;42.40
10597;DHT22;5346;48.766;8.674;2023-05-13T16:22:37;13.60;21.40
10597;DHT22;5346;48.766;8.674;2023-05-13T16:25:11;13.80;53.60
10597;DHT22;5346;48.766;8.674;2023-05-13T16:27:49;13.90;61.20
10597;DHT22;5346;48.766;8.674;2023-05-13T16:30:23;14.10;1.00
10597;DHT22;5346;48.766;8.674;2023-05-13T16:32:50;14.10;20.60
10597;DHT22;5346;48.766;8.674;2023-05-13T16:35:27;14.10;1.00
10597;DHT22;5346;48.766;8.674;2023-05-13T16:38:01;13.90;1.00
10597;DHT22;5346;48.766;8.674;2023-05-13T16:40:36;13.70;1.00
10597;DHT22;5346;48.766;8.674;2023-05-13T16:43:10;13.40;46.10
10597;DHT22;5346;48.766;8.674;2023-05-13T16:45:39;13.10;27.00
10597;DHT22;5346;48.766;8.674;2023-05-13T16:48:12;13.00;91.10
10597;DHT22;5346;48.766;8.674;2023-05-13T16:50:40;12.80;99.90
10597;DHT22;5346;48.766;8.674;2023-05-13T16:53:13;12.70;99.90